Aviation Digital Data Service (ADDS)

Output produced by METARs form (1028 UTC 30 October 2020)
found at http://aviationweather.gov/metar/data/
 
METAR text: KAVP 301009Z AUTO 03008KT 6SM RA BR SCT014 OVC019 04/02 A2976 RMK AO2 P0002 T00440022
Conditions at: KAVP (AVOCA/WILKES B. , PA, US) observed 1009 UTC 30 October 2020
Temperature: 4.4°C (40°F)
Dewpoint: 2.2°C (36°F) [RH = 86%]
Pressure (altimeter): 29.76 inches Hg (1007.9 mb)
Winds: from the NNE (30 degrees) at 9 MPH (8 knots; 4.1 m/s)
Visibility: 6 miles (10 km)
Ceiling: 1900 feet AGL
Clouds: scattered clouds at 1400 feet AGL
overcast cloud deck at 1900 feet AGL
Weather: RA BR  (moderate rain, mist)

METAR text: KAVP 300954Z AUTO 05008KT 7SM RA BKN014 OVC020 04/03 A2976 RMK AO2 SLP080 P0007 T00440028
Conditions at: KAVP (AVOCA/WILKES B. , PA, US) observed 0954 UTC 30 October 2020
Temperature: 4.4°C (40°F)
Dewpoint: 2.8°C (37°F) [RH = 89%]
Pressure (altimeter): 29.76 inches Hg (1007.9 mb)
[Sea-level pressure: 1008.0 mb]
Winds: from the NE (50 degrees) at 9 MPH (8 knots; 4.1 m/s)
Visibility: 7 miles (11 km)
Ceiling: 1400 feet AGL
Clouds: broken clouds at 1400 feet AGL
overcast cloud deck at 2000 feet AGL
Weather: RA  (moderate rain)

METAR text: KAVP 300945Z AUTO 03010KT 8SM -RA FEW009 BKN016 OVC022 04/03 A2976 RMK AO2 P0007 T00440028
Conditions at: KAVP (AVOCA/WILKES B. , PA, US) observed 0945 UTC 30 October 2020
Temperature: 4.4°C (40°F)
Dewpoint: 2.8°C (37°F) [RH = 89%]
Pressure (altimeter): 29.76 inches Hg (1007.9 mb)
Winds: from the NNE (30 degrees) at 12 MPH (10 knots; 5.1 m/s)
Visibility: 8 miles (13 km)
Ceiling: 1600 feet AGL
Clouds: few clouds at 900 feet AGL
broken clouds at 1600 feet AGL
overcast cloud deck at 2200 feet AGL
Weather: -RA  (light rain)

METAR text: KAVP 300928Z AUTO 04007KT 10SM -RA SCT009 OVC014 05/03 A2973 RMK AO2 P0004 T00500033
Conditions at: KAVP (AVOCA/WILKES B. , PA, US) observed 0928 UTC 30 October 2020
Temperature: 5.0°C (41°F)
Dewpoint: 3.3°C (38°F) [RH = 89%]
Pressure (altimeter): 29.73 inches Hg (1006.9 mb)
Winds: from the NE (40 degrees) at 8 MPH (7 knots; 3.6 m/s)
Visibility: 10 or more miles (16+ km)
Ceiling: 1400 feet AGL
Clouds: scattered clouds at 900 feet AGL
overcast cloud deck at 1400 feet AGL
Weather: -RA  (light rain)

METAR text: KAVP 300919Z AUTO 04007KT 10SM -RA BKN010 BKN014 OVC031 05/03 A2972 RMK AO2 P0004 T00500033
Conditions at: KAVP (AVOCA/WILKES B. , PA, US) observed 0919 UTC 30 October 2020
Temperature: 5.0°C (41°F)
Dewpoint: 3.3°C (38°F) [RH = 89%]
Pressure (altimeter): 29.72 inches Hg (1006.5 mb)
Winds: from the NE (40 degrees) at 8 MPH (7 knots; 3.6 m/s)
Visibility: 10 or more miles (16+ km)
Ceiling: 1000 feet AGL
Clouds: broken clouds at 1000 feet AGL
broken clouds at 1400 feet AGL
overcast cloud deck at 3100 feet AGL
Weather: -RA  (light rain)

METAR text: KAVP 300854Z AUTO 05009KT 7SM RA FEW009 BKN021 OVC025 05/03 A2971 RMK AO2 SLP063 P0006 60008 T00500033 53010
Conditions at: KAVP (AVOCA/WILKES B. , PA, US) observed 0854 UTC 30 October 2020
Temperature: 5.0°C (41°F)
Dewpoint: 3.3°C (38°F) [RH = 89%]
Pressure (altimeter): 29.71 inches Hg (1006.2 mb)
[Sea-level pressure: 1006.3 mb]
Winds: from the NE (50 degrees) at 10 MPH (9 knots; 4.6 m/s)
Visibility: 7 miles (11 km)
Ceiling: 2100 feet AGL
Clouds: few clouds at 900 feet AGL
broken clouds at 2100 feet AGL
overcast cloud deck at 2500 feet AGL
Weather: RA  (moderate rain)

Forecast for: KAVP (AVOCA/WILKES B. , PA, US)
Text: KAVP 300906Z 3009/3106 02007KT 3SM -RA BR OVC015
Forecast period: 0900 to 1200 UTC 30 October 2020
Forecast type: FROM: standard forecast or significant change
Winds: from the NNE (20 degrees) at 8 MPH (7 knots; 3.6 m/s)
Visibility: 3 miles (5 km)
Ceiling: 1500 feet AGL
Clouds: overcast cloud deck at 1500 feet AGL
Weather: -RA BR  (light rain, mist)
Text: TEMPO 3010/3012 OVC008
Forecast period: 1000 to 1200 UTC 30 October 2020
Forecast type: TEMPORARY: The following changes expected for less than half the time period
Visibility: missing
Ceiling: 800 feet AGL
Clouds: overcast cloud deck at 800 feet AGL
Weather: no significant weather forecast for this period
Text: FM301200 02007KT 2SM -SHRASN BR OVC008
Forecast period: 1200 to 1600 UTC 30 October 2020
Forecast type: FROM: standard forecast or significant change
Winds: from the NNE (20 degrees) at 8 MPH (7 knots; 3.6 m/s)
Visibility: 2.00 miles (3.22 km)
Ceiling: 800 feet AGL
Clouds: overcast cloud deck at 800 feet AGL
Weather: -SHRA -SHSN BR  (light rain showers, light snow showers, mist)
Text: FM301600 36006KT P6SM OVC015
Forecast period: 1600 to 2100 UTC 30 October 2020
Forecast type: FROM: standard forecast or significant change
Winds: from the N (360 degrees) at 7 MPH (6 knots; 3.1 m/s)
Visibility: 6 or more miles (10+ km)
Ceiling: 1500 feet AGL
Clouds: overcast cloud deck at 1500 feet AGL
Weather: no significant weather forecast for this period
Text: FM302100 32008KT P6SM BKN035
Forecast period: 2100 UTC 30 October 2020 to 0200 UTC 31 October 2020
Forecast type: FROM: standard forecast or significant change
Winds: from the NW (320 degrees) at 9 MPH (8 knots; 4.1 m/s)
Visibility: 6 or more miles (10+ km)
Ceiling: 3500 feet AGL
Clouds: broken clouds at 3500 feet AGL
Weather: no significant weather forecast for this period
Text: FM310200 VRB04KT P6SM SCT250
Forecast period: 0200 to 0600 UTC 31 October 2020
Forecast type: FROM: standard forecast or significant change
Winds: variable direction winds at 5 MPH (4 knots; 2.1 m/s)
Visibility: 6 or more miles (10+ km)
Ceiling: at least 12,000 feet AGL
Clouds: scattered clouds at 25000 feet AGL
Weather: no significant weather forecast for this period